createdAt,value
2023-05-23T00:01:43.236Z,20.50
2023-05-23T00:04:10.838Z,20.50
2023-05-23T00:06:38.821Z,20.50
2023-05-23T00:09:06.120Z,20.50
2023-05-23T00:11:33.125Z,20.50
2023-05-23T00:14:01.303Z,20.50
2023-05-23T00:16:28.500Z,20.50
2023-05-23T00:18:57.607Z,20.40
2023-05-23T00:21:24.686Z,20.40
2023-05-23T00:23:51.716Z,20.40
2023-05-23T00:26:18.667Z,20.40
2023-05-23T00:28:46.788Z,20.40
2023-05-23T00:31:13.739Z,20.40
2023-05-23T00:33:40.820Z,20.40
2023-05-23T00:36:07.794Z,20.40
2023-05-23T00:38:34.709Z,20.40
2023-05-23T00:41:02.559Z,20.40
2023-05-23T00:43:29.566Z,20.40
2023-05-23T00:45:56.575Z,20.40
2023-05-23T00:48:25.683Z,20.30
2023-05-23T00:50:53.972Z,20.30
2023-05-23T00:53:21.726Z,20.30
2023-05-23T00:55:48.910Z,20.30
2023-05-23T00:58:17.694Z,20.20
2023-05-23T01:00:50.368Z,20.20
2023-05-23T01:03:18.920Z,20.10
2023-05-23T01:05:45.978Z,20.10
2023-05-23T01:08:13.178Z,20.00
2023-05-23T01:10:40.229Z,20.00
2023-05-23T01:13:24.419Z,20.00
2023-05-23T01:16:19.747Z,20.00
2023-05-23T01:19:04.780Z,20.00
2023-05-23T01:21:32.520Z,20.00
2023-05-23T01:24:19.488Z,20.00
2023-05-23T01:27:06.170Z,19.90
2023-05-23T01:29:38.992Z,19.90
2023-05-23T01:32:11.605Z,19.90
2023-05-23T01:34:40.351Z,19.90
2023-05-23T01:37:11.831Z,19.90
2023-05-23T01:39:39.102Z,19.90
2023-05-23T01:42:06.936Z,19.80
2023-05-23T01:44:36.374Z,19.80
2023-05-23T01:47:04.551Z,19.80
2023-05-23T01:49:32.549Z,19.80
2023-05-23T01:52:01.861Z,19.80
2023-05-23T01:54:30.571Z,19.80
2023-05-23T01:56:58.280Z,19.70
2023-05-23T01:59:25.510Z,19.70
2023-05-23T02:01:53.670Z,19.70
2023-05-23T02:04:21.722Z,19.70
2023-05-23T02:06:48.650Z,19.70
2023-05-23T02:09:15.713Z,19.70
2023-05-23T02:11:42.668Z,19.70
2023-05-23T02:14:11.170Z,19.70
2023-05-23T02:16:38.221Z,19.70
2023-05-23T02:19:05.253Z,19.70
2023-05-23T02:21:34.834Z,19.70
2023-05-23T02:24:03.710Z,19.70
2023-05-23T02:26:30.699Z,19.70
2023-05-23T02:28:57.622Z,19.70
2023-05-23T02:31:25.180Z,19.70
2023-05-23T02:33:52.137Z,19.70
2023-05-23T02:36:19.181Z,19.70
2023-05-23T02:38:46.145Z,19.70
2023-05-23T02:41:13.064Z,19.70
2023-05-23T02:43:40.006Z,19.70
2023-05-23T02:46:07.152Z,19.70
2023-05-23T02:48:34.114Z,19.70
2023-05-23T02:51:01.210Z,19.70
2023-05-23T02:53:28.262Z,19.70
2023-05-23T02:55:55.642Z,19.70
2023-05-23T02:58:22.804Z,19.60
2023-05-23T03:00:49.758Z,19.70
2023-05-23T03:03:17.697Z,19.60
2023-05-23T03:05:44.864Z,19.60
2023-05-23T03:08:12.190Z,19.50
2023-05-23T03:10:40.299Z,19.40
2023-05-23T03:13:07.397Z,19.40
2023-05-23T03:15:35.557Z,19.40
2023-05-23T03:18:02.851Z,19.30
2023-05-23T03:20:32.133Z,19.30
2023-05-23T03:22:59.161Z,19.30
2023-05-23T03:25:26.251Z,19.20
2023-05-23T03:27:54.788Z,19.20
2023-05-23T03:30:22.169Z,19.20
2023-05-23T03:32:50.046Z,19.20
2023-05-23T03:35:17.324Z,19.20
2023-05-23T03:37:44.420Z,19.20
2023-05-23T03:40:11.496Z,19.20
2023-05-23T03:42:40.046Z,19.20
2023-05-23T03:45:09.127Z,19.20
2023-05-23T03:47:36.545Z,19.20
2023-05-23T03:50:03.832Z,19.20
2023-05-23T03:52:31.425Z,19.20
2023-05-23T03:54:58.521Z,19.30
2023-05-23T03:57:25.593Z,19.30
2023-05-23T03:59:53.036Z,19.30
2023-05-23T04:02:22.551Z,19.20
2023-05-23T04:04:49.638Z,19.30
2023-05-23T04:07:16.789Z,19.30
2023-05-23T04:09:44.920Z,19.30
2023-05-23T04:12:13.504Z,19.30
2023-05-23T04:14:40.570Z,19.30
2023-05-23T04:17:09.212Z,19.30
2023-05-23T04:19:36.716Z,19.40
2023-05-23T04:22:03.777Z,19.30
2023-05-23T04:24:31.029Z,19.30
2023-05-23T04:26:59.350Z,19.30
2023-05-23T04:29:26.568Z,19.30
2023-05-23T04:31:54.984Z,19.30
2023-05-23T04:34:22.476Z,19.30
2023-05-23T04:36:49.788Z,19.30
2023-05-23T04:39:17.118Z,19.30
2023-05-23T04:42:00.560Z,19.40
2023-05-23T04:44:45.769Z,19.40
2023-05-23T04:47:19.067Z,19.40
2023-05-23T04:49:57.596Z,19.50
2023-05-23T04:52:25.480Z,19.60
2023-05-23T04:54:54.068Z,19.60
2023-05-23T04:57:22.071Z,19.60
2023-05-23T04:59:49.174Z,19.70
2023-05-23T05:02:16.175Z,19.70
2023-05-23T05:04:43.083Z,19.80
2023-05-23T05:07:10.842Z,19.80
2023-05-23T05:09:37.771Z,19.80
2023-05-23T05:12:04.985Z,19.90
2023-05-23T05:14:31.909Z,19.90
2023-05-23T05:17:00.052Z,19.90
2023-05-23T05:19:34.415Z,20.00
2023-05-23T05:22:01.496Z,20.10
2023-05-23T05:24:29.850Z,20.10
2023-05-23T05:26:57.554Z,20.20
2023-05-23T05:29:25.295Z,20.20
2023-05-23T05:31:53.407Z,20.20
2023-05-23T05:34:20.873Z,20.30
2023-05-23T05:36:48.312Z,20.40
2023-05-23T05:39:17.721Z,20.50
2023-05-23T05:41:44.777Z,20.50
2023-05-23T05:44:11.811Z,20.60
2023-05-23T05:46:39.077Z,20.70
2023-05-23T05:49:06.036Z,20.80
2023-05-23T05:51:32.984Z,20.90
2023-05-23T05:54:00.152Z,20.90
2023-05-23T05:56:27.886Z,21.00
2023-05-23T05:58:54.855Z,21.10
2023-05-23T06:01:22.469Z,21.10
2023-05-23T06:03:49.651Z,21.20
2023-05-23T06:06:18.069Z,21.30
2023-05-23T06:08:45.204Z,21.40
2023-05-23T06:11:16.273Z,21.40
2023-05-23T06:13:43.203Z,21.50
2023-05-23T06:16:10.538Z,21.50
2023-05-23T06:18:37.556Z,21.60
2023-05-23T06:21:04.568Z,21.70
2023-05-23T06:23:33.185Z,21.70
2023-05-23T06:26:00.130Z,21.80
2023-05-23T06:28:27.333Z,21.90
2023-05-23T06:30:54.251Z,21.90
2023-05-23T06:33:21.188Z,22.00
2023-05-23T06:35:49.229Z,22.10
2023-05-23T06:38:17.805Z,22.20
2023-05-23T06:40:45.087Z,22.20
2023-05-23T06:43:12.531Z,22.30
2023-05-23T06:45:47.742Z,22.30
2023-05-23T06:48:14.857Z,22.40
2023-05-23T06:50:42.496Z,22.40
2023-05-23T06:53:11.237Z,22.40
2023-05-23T06:55:38.386Z,22.40
2023-05-23T06:58:07.736Z,22.40
2023-05-23T07:00:36.861Z,22.30
2023-05-23T07:03:24.106Z,22.30
2023-05-23T07:05:51.911Z,22.30
2023-05-23T07:08:20.053Z,22.30
2023-05-23T07:10:59.566Z,22.30
2023-05-23T07:13:44.785Z,22.30
2023-05-23T07:16:19.699Z,22.30
2023-05-23T07:19:03.256Z,22.40
2023-05-23T07:21:31.713Z,22.40
2023-05-23T07:23:58.634Z,22.40
2023-05-23T07:26:27.362Z,22.40
2023-05-23T07:28:56.134Z,22.40
2023-05-23T07:31:23.414Z,22.40
2023-05-23T07:33:56.815Z,22.40
2023-05-23T07:36:34.132Z,22.50
2023-05-23T07:39:02.092Z,22.50
2023-05-23T07:41:29.052Z,22.50
2023-05-23T07:43:56.073Z,22.50
2023-05-23T07:46:23.136Z,22.60
2023-05-23T07:48:50.128Z,22.60
2023-05-23T07:51:19.314Z,22.60
2023-05-23T07:53:46.257Z,22.60
2023-05-23T07:56:13.967Z,22.60
2023-05-23T07:58:42.683Z,22.60
2023-05-23T08:01:09.712Z,22.70
2023-05-23T08:03:59.486Z,22.70
2023-05-23T08:06:38.641Z,22.70
2023-05-23T08:09:10.225Z,22.80
2023-05-23T08:11:42.418Z,22.80
2023-05-23T08:14:09.464Z,22.80
2023-05-23T08:16:39.209Z,22.90
2023-05-23T08:19:14.362Z,22.90
2023-05-23T08:21:42.473Z,23.00
2023-05-23T08:24:09.445Z,23.00
2023-05-23T08:26:39.445Z,23.00
2023-05-23T08:29:10.620Z,23.00
2023-05-23T08:31:37.930Z,23.10
2023-05-23T08:34:06.864Z,23.10
2023-05-23T08:36:36.721Z,23.10
2023-05-23T08:39:05.405Z,23.20
2023-05-23T08:41:36.869Z,23.30
2023-05-23T08:44:08.989Z,23.40
2023-05-23T08:46:46.728Z,23.40
2023-05-23T08:49:23.138Z,23.60
2023-05-23T08:51:55.961Z,23.60
2023-05-23T08:54:23.008Z,23.70
2023-05-23T08:56:52.231Z,23.70
2023-05-23T08:59:20.177Z,23.80
2023-05-23T09:01:48.636Z,23.80
2023-05-23T09:04:17.202Z,23.90
2023-05-23T09:06:57.556Z,23.90
2023-05-23T09:09:25.764Z,23.80
2023-05-23T09:11:54.456Z,23.80
2023-05-23T09:14:22.548Z,23.80
2023-05-23T09:16:52.132Z,23.80
2023-05-23T09:19:22.618Z,23.80
2023-05-23T09:21:55.985Z,23.80
2023-05-23T09:24:36.290Z,23.80
2023-05-23T09:27:07.276Z,23.80
2023-05-23T09:29:40.441Z,23.90
2023-05-23T09:32:21.359Z,23.90
2023-05-23T09:35:06.404Z,24.00
2023-05-23T09:37:35.791Z,24.00
2023-05-23T09:40:12.241Z,24.00
2023-05-23T09:42:45.099Z,24.00
2023-05-23T09:45:13.857Z,24.10
2023-05-23T09:47:51.079Z,24.10
2023-05-23T09:50:18.260Z,24.10
2023-05-23T09:52:46.489Z,24.10
2023-05-23T09:55:13.961Z,24.20
2023-05-23T09:57:43.228Z,24.20
2023-05-23T10:00:12.335Z,24.20
2023-05-23T10:03:15.109Z,24.20
2023-05-23T10:05:47.526Z,24.30
2023-05-23T10:08:40.294Z,24.30
2023-05-23T10:11:36.025Z,24.40
2023-05-23T10:14:09.572Z,24.50
2023-05-23T10:17:19.072Z,24.50
2023-05-23T10:19:56.677Z,24.60
2023-05-23T10:22:24.539Z,24.80
2023-05-23T10:24:51.654Z,24.90
2023-05-23T10:27:19.107Z,25.00
2023-05-23T10:29:46.881Z,25.10
2023-05-23T10:32:15.066Z,25.20
2023-05-23T10:35:09.876Z,25.30
2023-05-23T10:38:07.048Z,25.30
2023-05-23T10:41:07.012Z,25.40
2023-05-23T10:44:01.060Z,25.50
2023-05-23T10:46:52.771Z,25.60
2023-05-23T10:49:20.574Z,25.70
2023-05-23T10:51:52.349Z,25.80
2023-05-23T10:54:22.918Z,25.90
2023-05-23T10:57:04.453Z,26.00
2023-05-23T10:59:31.880Z,26.20
2023-05-23T11:02:01.379Z,26.40
2023-05-23T11:04:29.396Z,26.50
2023-05-23T11:06:57.634Z,26.70
2023-05-23T11:09:24.782Z,26.80
2023-05-23T11:11:54.587Z,26.90
2023-05-23T11:14:55.879Z,27.00
2023-05-23T11:17:33.670Z,27.20
2023-05-23T11:20:06.996Z,27.30
2023-05-23T11:22:35.070Z,27.30
2023-05-23T11:25:08.142Z,27.40
2023-05-23T11:27:40.946Z,27.50
2023-05-23T11:30:10.309Z,27.60
2023-05-23T11:32:37.861Z,27.60
2023-05-23T11:35:07.662Z,27.70
2023-05-23T11:37:36.111Z,27.70
2023-05-23T11:40:41.577Z,27.70
2023-05-23T11:43:11.887Z,27.70
2023-05-23T11:45:40.021Z,27.70
2023-05-23T11:48:08.370Z,27.70
2023-05-23T11:50:44.473Z,27.70
2023-05-23T11:53:11.775Z,27.70
2023-05-23T11:55:41.828Z,27.70
2023-05-23T11:58:10.351Z,27.80
2023-05-23T12:00:46.458Z,27.80
2023-05-23T12:03:13.693Z,27.90
2023-05-23T12:05:44.789Z,28.00
2023-05-23T12:08:14.508Z,28.00
2023-05-23T12:10:57.693Z,28.10
2023-05-23T12:13:26.247Z,28.20
2023-05-23T12:16:00.638Z,28.30
2023-05-23T12:18:32.277Z,28.30
2023-05-23T12:21:05.768Z,28.30
2023-05-23T12:23:34.992Z,28.50
2023-05-23T12:26:10.379Z,28.50
2023-05-23T12:28:43.556Z,28.60
2023-05-23T12:31:19.429Z,28.60
2023-05-23T12:33:48.593Z,28.60
2023-05-23T12:36:23.973Z,28.60
2023-05-23T12:38:50.969Z,28.50
2023-05-23T12:41:20.149Z,28.40
2023-05-23T12:43:55.232Z,28.30
2023-05-23T12:46:24.237Z,28.20
2023-05-23T12:48:51.536Z,28.10
2023-05-23T12:51:18.623Z,28.00
2023-05-23T12:53:45.644Z,27.90
2023-05-23T12:56:12.687Z,27.80
2023-05-23T12:58:39.662Z,27.70
2023-05-23T13:01:06.613Z,27.60
2023-05-23T13:03:33.662Z,27.40
2023-05-23T13:06:00.798Z,27.30
2023-05-23T13:08:27.847Z,27.20
2023-05-23T13:10:54.860Z,27.10
2023-05-23T13:13:22.488Z,27.00
2023-05-23T13:15:51.134Z,26.80
2023-05-23T13:18:18.815Z,26.70
2023-05-23T13:20:46.474Z,26.50
2023-05-23T13:23:13.611Z,26.40
2023-05-23T13:25:40.810Z,26.20
2023-05-23T13:28:07.926Z,26.00
2023-05-23T13:30:35.054Z,25.80
2023-05-23T13:33:02.408Z,25.70
2023-05-23T13:35:29.513Z,25.50
2023-05-23T13:37:56.422Z,25.40
2023-05-23T13:40:23.406Z,25.20
2023-05-23T13:42:51.608Z,25.00
2023-05-23T13:45:19.919Z,24.90
2023-05-23T13:47:47.289Z,24.80
2023-05-23T13:50:14.485Z,24.60
2023-05-23T13:52:44.927Z,24.40
2023-05-23T13:55:13.587Z,24.20
2023-05-23T13:57:40.626Z,24.10
2023-05-23T14:00:08.896Z,24.00
2023-05-23T14:02:36.052Z,23.80
2023-05-23T14:05:03.758Z,23.70
2023-05-23T14:07:31.370Z,23.60
2023-05-23T14:09:59.634Z,23.50
2023-05-23T14:12:26.630Z,23.20
2023-05-23T14:14:53.568Z,23.10
2023-05-23T14:17:20.662Z,22.90
2023-05-23T14:19:47.792Z,22.80
2023-05-23T14:22:14.776Z,22.70
2023-05-23T14:24:42.456Z,22.50
2023-05-23T14:27:11.117Z,22.50
2023-05-23T14:29:39.052Z,22.40
2023-05-23T14:32:06.540Z,22.30
2023-05-23T14:34:33.702Z,22.20
2023-05-23T14:37:01.387Z,22.20
2023-05-23T14:39:29.196Z,22.00
2023-05-23T14:41:56.622Z,21.90
2023-05-23T14:44:23.815Z,21.80
2023-05-23T14:46:50.923Z,21.70
2023-05-23T14:49:18.195Z,21.60
2023-05-23T14:51:50.402Z,21.50
2023-05-23T14:54:18.555Z,21.40
2023-05-23T14:56:45.643Z,21.30
2023-05-23T14:59:12.628Z,21.20
2023-05-23T15:01:40.673Z,21.20
2023-05-23T15:04:09.658Z,21.10
2023-05-23T15:06:38.855Z,21.00
2023-05-23T15:09:06.226Z,20.90
2023-05-23T15:11:34.987Z,20.70
2023-05-23T15:14:02.207Z,20.60
2023-05-23T15:16:32.914Z,20.60
2023-05-23T15:19:00.312Z,20.40
2023-05-23T15:21:27.631Z,20.40
2023-05-23T15:23:54.653Z,20.20
2023-05-23T15:26:22.533Z,20.20
2023-05-23T15:28:49.806Z,20.00
2023-05-23T15:31:16.860Z,20.00
2023-05-23T15:33:43.870Z,19.90
2023-05-23T15:36:13.050Z,19.80
2023-05-23T15:38:40.491Z,19.80
2023-05-23T15:41:07.473Z,19.70
2023-05-23T15:43:37.698Z,19.60
2023-05-23T15:46:05.454Z,19.50
2023-05-23T15:48:32.466Z,19.40
2023-05-23T15:50:59.411Z,19.30
2023-05-23T15:53:26.353Z,19.20
2023-05-23T15:55:53.257Z,19.10
2023-05-23T15:58:20.692Z,19.00
2023-05-23T16:00:47.657Z,18.80
2023-05-23T16:03:14.690Z,18.70
2023-05-23T16:05:41.837Z,18.50
2023-05-23T16:08:09.017Z,18.40
2023-05-23T16:10:36.026Z,18.30
2023-05-23T16:13:03.119Z,18.20
2023-05-23T16:15:30.126Z,18.10
2023-05-23T16:17:57.091Z,18.10
2023-05-23T16:20:24.143Z,18.00
2023-05-23T16:22:51.126Z,17.90
2023-05-23T16:25:18.087Z,17.90
2023-05-23T16:27:45.014Z,17.80
2023-05-23T16:30:12.170Z,17.70
2023-05-23T16:32:39.146Z,17.70
2023-05-23T16:35:06.650Z,17.60
2023-05-23T16:37:33.584Z,17.50
2023-05-23T16:40:00.690Z,17.40
2023-05-23T16:42:27.768Z,17.40
2023-05-23T16:44:54.882Z,17.30
2023-05-23T16:47:21.867Z,17.30
2023-05-23T16:49:48.843Z,17.30
2023-05-23T16:52:16.745Z,17.40
2023-05-23T16:54:43.854Z,17.30
2023-05-23T16:57:11.650Z,17.30
2023-05-23T16:59:38.619Z,17.30
2023-05-23T17:02:05.531Z,17.30
2023-05-23T17:04:32.478Z,17.30
2023-05-23T17:06:59.404Z,17.20
2023-05-23T17:09:26.461Z,17.20
2023-05-23T17:11:53.479Z,17.20
2023-05-23T17:14:20.792Z,17.20
2023-05-23T17:16:47.732Z,17.20
2023-05-23T17:19:14.702Z,17.20
2023-05-23T17:21:41.820Z,17.20
2023-05-23T17:24:08.746Z,17.20
2023-05-23T17:26:35.689Z,17.20
2023-05-23T17:29:02.630Z,17.20
2023-05-23T17:31:30.818Z,17.20
2023-05-23T17:33:58.126Z,17.20
2023-05-23T17:36:25.097Z,17.20
2023-05-23T17:38:54.667Z,17.30
2023-05-23T17:41:24.895Z,17.30
2023-05-23T17:43:51.840Z,17.30
2023-05-23T17:46:18.818Z,17.30
2023-05-23T17:48:47.984Z,17.30
2023-05-23T17:51:15.955Z,17.30
2023-05-23T17:53:43.288Z,17.30
2023-05-23T17:56:10.420Z,17.30
2023-05-23T17:58:38.541Z,17.30
2023-05-23T18:01:06.940Z,17.30
2023-05-23T18:03:34.056Z,17.40
2023-05-23T18:06:01.077Z,17.40
2023-05-23T18:08:28.055Z,17.30
2023-05-23T18:10:55.325Z,17.40
2023-05-23T18:13:22.449Z,17.30
2023-05-23T18:15:49.438Z,17.40
2023-05-23T18:18:17.921Z,17.40
2023-05-23T18:20:44.996Z,17.40
2023-05-23T18:23:12.122Z,17.30
2023-05-23T18:25:39.123Z,17.40
2023-05-23T18:28:06.055Z,17.30
2023-05-23T18:30:33.613Z,17.30
2023-05-23T18:33:01.134Z,17.40
2023-05-23T18:35:28.355Z,17.40
2023-05-23T18:37:55.409Z,17.40
2023-05-23T18:40:23.982Z,17.40
2023-05-23T18:42:51.092Z,17.40
2023-05-23T18:45:18.201Z,17.30
2023-05-23T18:47:45.225Z,17.30
2023-05-23T18:50:13.344Z,17.20
2023-05-23T18:52:40.829Z,17.20
2023-05-23T18:55:08.635Z,17.20
2023-05-23T18:57:35.640Z,17.10
2023-05-23T19:00:04.424Z,17.10
2023-05-23T19:02:31.555Z,17.00
2023-05-23T19:04:58.902Z,17.00
2023-05-23T19:07:25.845Z,16.90
2023-05-23T19:09:52.842Z,16.90
2023-05-23T19:12:19.923Z,16.80
2023-05-23T19:14:47.112Z,16.80
2023-05-23T19:17:14.049Z,16.70
2023-05-23T19:19:41.150Z,16.70
2023-05-23T19:22:08.203Z,16.70
2023-05-23T19:24:35.158Z,16.70
2023-05-23T19:27:02.469Z,16.70
2023-05-23T19:29:29.495Z,16.60
2023-05-23T19:31:58.264Z,16.60
2023-05-23T19:34:25.313Z,16.60
2023-05-23T19:36:52.280Z,16.60
2023-05-23T19:39:19.309Z,16.60
2023-05-23T19:41:46.356Z,16.60
2023-05-23T19:44:13.612Z,16.60
2023-05-23T19:46:40.551Z,16.60
2023-05-23T19:49:10.635Z,16.50
2023-05-23T19:51:37.814Z,16.50
2023-05-23T19:54:04.867Z,16.40
2023-05-23T19:56:32.451Z,16.30
2023-05-23T19:58:59.362Z,16.30
2023-05-23T20:01:27.426Z,16.20
2023-05-23T20:03:54.620Z,16.20
2023-05-23T20:06:22.143Z,16.10
2023-05-23T20:08:49.127Z,16.10
2023-05-23T20:11:16.313Z,16.00
2023-05-23T20:13:43.249Z,16.00
2023-05-23T20:16:10.359Z,16.00
2023-05-23T20:18:37.331Z,15.90
2023-05-23T20:21:05.322Z,15.90
2023-05-23T20:23:32.681Z,15.90
2023-05-23T20:26:00.395Z,15.90
2023-05-23T20:28:27.638Z,15.90
2023-05-23T20:30:54.593Z,15.90
2023-05-23T20:33:21.943Z,15.90
2023-05-23T20:35:48.957Z,15.80
2023-05-23T20:38:18.561Z,15.80
2023-05-23T20:40:46.349Z,15.80
2023-05-23T20:43:15.040Z,15.80
2023-05-23T20:45:42.272Z,15.80
2023-05-23T20:48:09.482Z,15.70
2023-05-23T20:50:36.637Z,15.70
2023-05-23T20:53:03.710Z,15.60
2023-05-23T20:55:30.632Z,15.60
2023-05-23T20:57:57.561Z,15.50
2023-05-23T21:00:24.560Z,15.50
2023-05-23T21:02:51.619Z,15.40
2023-05-23T21:05:18.660Z,15.50
2023-05-23T21:07:45.642Z,15.40
2023-05-23T21:10:12.598Z,15.40
2023-05-23T21:12:39.571Z,15.30
2023-05-23T21:15:07.415Z,15.30
2023-05-23T21:17:34.395Z,15.30
2023-05-23T21:20:01.350Z,15.30
2023-05-23T21:22:28.260Z,15.30
2023-05-23T21:24:55.265Z,15.20
2023-05-23T21:27:22.183Z,15.10
2023-05-23T21:29:49.114Z,15.10
2023-05-23T21:32:16.192Z,15.10
2023-05-23T21:34:43.209Z,15.10
2023-05-23T21:37:10.232Z,15.00
2023-05-23T21:39:50.744Z,15.00
2023-05-23T21:42:19.951Z,15.00
2023-05-23T21:44:47.022Z,14.90
2023-05-23T21:47:14.029Z,14.90
2023-05-23T21:49:40.991Z,14.80
2023-05-23T21:52:08.001Z,14.80
2023-05-23T21:54:35.019Z,14.80
2023-05-23T21:57:02.073Z,14.70
2023-05-23T21:59:29.016Z,14.70
2023-05-23T22:01:56.208Z,14.70
2023-05-23T22:04:23.157Z,14.70
2023-05-23T22:06:50.094Z,14.60
2023-05-23T22:09:17.053Z,14.60
2023-05-23T22:11:44.031Z,14.60
2023-05-23T22:14:11.252Z,14.60
2023-05-23T22:16:39.363Z,14.60
2023-05-23T22:19:07.185Z,14.60
2023-05-23T22:21:34.157Z,14.60
2023-05-23T22:24:01.392Z,14.60
2023-05-23T22:26:28.427Z,14.60
2023-05-23T22:28:55.910Z,14.60
2023-05-23T22:31:24.185Z,14.60
2023-05-23T22:33:51.425Z,14.70
2023-05-23T22:36:18.414Z,14.60
2023-05-23T22:38:45.735Z,14.70
2023-05-23T22:41:12.822Z,14.70
2023-05-23T22:43:40.096Z,14.70
2023-05-23T22:46:07.634Z,14.70
2023-05-23T22:48:34.629Z,14.70
2023-05-23T22:51:02.667Z,14.70
2023-05-23T22:53:30.235Z,14.70
2023-05-23T22:55:57.545Z,14.80
2023-05-23T22:58:24.545Z,14.80
2023-05-23T23:00:51.873Z,14.80
2023-05-23T23:03:19.086Z,14.80
2023-05-23T23:05:46.446Z,14.70
2023-05-23T23:08:13.485Z,14.80
2023-05-23T23:10:41.792Z,14.80
2023-05-23T23:13:09.218Z,14.80
2023-05-23T23:15:36.695Z,14.80
2023-05-23T23:18:05.848Z,14.80
2023-05-23T23:20:33.255Z,14.80
2023-05-23T23:23:00.402Z,14.80
2023-05-23T23:25:27.354Z,14.80
2023-05-23T23:27:54.279Z,14.80
2023-05-23T23:30:21.371Z,14.80
2023-05-23T23:32:48.385Z,14.80
2023-05-23T23:35:15.738Z,14.70
2023-05-23T23:37:42.670Z,14.70
2023-05-23T23:40:10.669Z,14.70
2023-05-23T23:42:37.618Z,14.70
2023-05-23T23:45:05.863Z,14.70
2023-05-23T23:47:33.100Z,14.60
2023-05-23T23:50:00.089Z,14.60
2023-05-23T23:52:27.964Z,14.60
2023-05-23T23:54:55.139Z,14.60
2023-05-23T23:57:22.219Z,14.50
2023-05-23T23:59:49.167Z,14.50
